Time;durP1;ratioP1;P1;durP2;ratioP2;P2;SDS_P1;SDS_P2;PMS_P1;PMS_P2;Temp;Humidity;BMP_temperature;BMP_pressure;BME280_temperature;BME280_humidity;BME280_pressure;Samples;Min_cycle;Max_cycle;Signal;HPM_P1;HPM_P2
2023/03/13 00:01:47;;;;;;;7.07;3.53;;;;;;;21.56;33.34;100107.72;5050150;28;20021;-72
2023/03/13 00:04:12;;;;;;;9.07;4.13;;;;;;;21.83;32.82;100144.56;5052900;28;20029;-73
2023/03/13 00:06:40;;;;;;;6.63;3.45;;;;;;;21.79;32.97;100140.66;5048939;28;20044;-73
2023/03/13 00:09:10;;;;;;;9.50;3.67;;;;;;;21.61;32.85;100111.47;5048475;28;20085;-73
2023/03/13 00:11:36;;;;;;;8.48;3.38;;;;;;;21.81;33.04;100127.72;5056747;28;20447;-73
2023/03/13 00:14:02;;;;;;;9.85;4.03;;;;;;;21.60;33.24;100088.16;5054104;28;20496;-73
2023/03/13 00:16:29;;;;;;;8.52;3.35;;;;;;;21.80;33.19;100125.25;5049022;28;20045;-73
2023/03/13 00:18:55;;;;;;;7.13;3.67;;;;;;;21.80;32.95;100115.25;5061795;28;20033;-73
2023/03/13 00:21:22;;;;;;;6.97;3.30;;;;;;;21.80;33.20;100112.53;5058316;28;20025;-73
2023/03/13 00:23:48;;;;;;;8.18;3.67;;;;;;;21.79;33.17;100097.34;5052006;28;20088;-72
2023/03/13 00:26:17;;;;;;;7.35;3.35;;;;;;;21.78;33.19;100094.84;5047868;28;20041;-72
2023/03/13 00:28:42;;;;;;;10.15;3.45;;;;;;;21.76;33.05;100084.22;5053514;28;20037;-72
2023/03/13 00:31:10;;;;;;;7.13;3.17;;;;;;;21.27;32.94;99995.31;5056244;28;20040;-73
2023/03/13 00:33:37;;;;;;;7.20;3.25;;;;;;;21.76;33.35;100076.09;5050037;28;20466;-73
2023/03/13 00:36:05;;;;;;;6.32;3.42;;;;;;;21.77;33.22;100066.94;5061556;28;20021;-72
2023/03/13 00:38:31;;;;;;;7.30;3.80;;;;;;;21.77;33.22;100063.41;5069217;28;20036;-73
2023/03/13 00:41:02;;;;;;;7.20;3.08;;;;;;;21.73;33.02;100049.47;5060404;28;20033;-73
2023/03/13 00:43:28;;;;;;;7.57;3.42;;;;;;;21.75;33.12;100052.81;5048731;28;20029;-73
2023/03/13 00:45:53;;;;;;;6.07;3.15;;;;;;;21.76;33.29;100050.94;5066526;28;20044;-72
2023/03/13 00:48:18;;;;;;;8.45;3.60;;;;;;;21.76;33.35;100043.63;5053258;28;20616;-72
2023/03/13 00:50:44;;;;;;;7.45;3.20;;;;;;;21.76;33.30;100045.53;5052167;28;20040;-72
2023/03/13 00:53:09;;;;;;;7.65;3.72;;;;;;;21.36;33.35;99970.59;5046796;28;20029;-73
2023/03/13 00:55:34;;;;;;;7.85;3.40;;;;;;;21.66;33.04;100018.84;5050430;28;20088;-73
2023/03/13 00:58:00;;;;;;;6.50;3.00;;;;;;;21.35;33.02;99958.13;5051422;28;20077;-73
2023/03/13 01:00:25;;;;;;;6.13;2.92;;;;;;;21.71;33.19;99998.28;5059402;28;20021;-73
2023/03/13 01:02:50;;;;;;;7.60;3.50;;;;;;;21.68;32.87;99997.84;5056228;28;20021;-73
2023/03/13 01:05:15;;;;;;;5.72;3.28;;;;;;;21.63;33.19;99987.66;5046074;28;20049;-72
2023/03/13 01:07:40;;;;;;;8.05;3.53;;;;;;;21.75;33.02;99998.69;5052474;28;20032;-72
2023/03/13 01:10:06;;;;;;;6.03;2.85;;;;;;;21.69;33.38;99970.59;5048690;28;20039;-73
2023/03/13 01:12:31;;;;;;;8.82;3.30;;;;;;;21.55;33.06;99935.66;5049502;28;20025;-73
2023/03/13 01:14:57;;;;;;;7.32;3.30;;;;;;;21.78;33.03;99970.38;5049758;28;20033;-73
2023/03/13 01:17:22;;;;;;;7.25;2.88;;;;;;;21.77;33.10;99950.59;5055198;28;20063;-73
2023/03/13 01:19:48;;;;;;;7.55;3.33;;;;;;;21.78;32.97;99948.72;5065654;28;20029;-73
2023/03/13 01:22:14;;;;;;;9.20;3.13;;;;;;;21.79;33.22;99943.13;5052523;28;20051;-73
2023/03/13 01:24:39;;;;;;;5.90;2.45;;;;;;;21.80;33.00;99935.81;5049268;28;20033;-73
2023/03/13 01:27:04;;;;;;;7.45;2.72;;;;;;;21.78;33.37;99933.31;5054801;28;20056;-73
2023/03/13 01:29:29;;;;;;;5.75;2.80;;;;;;;21.79;33.35;99920.63;5048638;28;20029;-72
2023/03/13 01:31:54;;;;;;;8.40;3.17;;;;;;;21.38;32.80;99851.44;5054885;28;20508;-73
2023/03/13 01:34:20;;;;;;;5.53;3.10;;;;;;;21.76;33.40;99908.34;5048950;28;20029;-72
2023/03/13 01:36:49;;;;;;;8.00;3.13;;;;;;;21.68;33.09;99889.66;5053001;28;20025;-71
2023/03/13 01:39:15;;;;;;;5.60;2.67;;;;;;;21.75;33.00;99901.28;5067512;28;20037;-72
2023/03/13 01:41:40;;;;;;;6.30;2.90;;;;;;;21.75;33.21;99892.31;5052420;28;20021;-72
2023/03/13 01:44:08;;;;;;;6.72;3.33;;;;;;;21.67;33.49;99879.88;5051414;28;20032;-72
2023/03/13 01:46:33;;;;;;;5.32;2.63;;;;;;;21.72;33.40;99885.47;5064869;28;20033;-72
2023/03/13 01:49:24;;;;;;;11.38;3.70;;;;;;;21.72;33.48;99880.06;5055739;28;20041;-72
2023/03/13 01:51:54;;;;;;;5.63;2.75;;;;;;;21.70;33.45;99855.06;5051729;28;20127;-73
2023/03/13 01:54:46;;;;;;;4.22;2.38;;;;;;;21.70;33.31;99860.50;5050963;28;20029;-73
2023/03/13 01:57:28;;;;;;;5.28;2.85;;;;;;;21.69;33.45;99850.72;5054465;28;20037;-72
2023/03/13 02:00:07;;;;;;;8.63;2.97;;;;;;;21.45;33.48;99804.41;5070127;28;20025;-72
2023/03/13 02:02:34;;;;;;;4.53;2.38;;;;;;;21.72;33.37;99828.66;5058162;28;20022;-72
2023/03/13 02:05:02;;;;;;;6.22;2.72;;;;;;;21.71;33.28;99817.00;5060621;28;20570;-72
2023/03/13 02:07:31;;;;;;;5.15;2.50;;;;;;;21.71;33.53;99813.47;5056798;28;20051;-72
2023/03/13 02:09:56;;;;;;;5.50;2.75;;;;;;;21.37;33.39;99752.44;5053359;28;20363;-72
2023/03/13 02:12:28;;;;;;;5.22;2.33;;;;;;;21.70;33.47;99799.09;5060438;28;20570;-72
2023/03/13 02:14:54;;;;;;;7.22;2.88;;;;;;;21.54;33.22;99763.59;5069303;28;20028;-72
2023/03/13 02:17:19;;;;;;;4.53;2.75;;;;;;;21.68;33.43;99786.84;5044724;28;20033;-72
2023/03/13 02:19:47;;;;;;;4.05;2.50;;;;;;;21.53;33.50;99760.03;5052585;28;20051;-73
2023/03/13 02:22:35;;;;;;;5.22;2.58;;;;;;;21.71;33.60;99771.03;5049308;28;20260;-73
2023/03/13 02:25:11;;;;;;;7.38;2.60;;;;;;;21.71;33.31;99770.19;5058298;28;20063;-73
2023/03/13 02:27:37;;;;;;;5.78;2.40;;;;;;;21.67;33.67;99761.66;5054462;28;20030;-72
2023/03/13 02:30:04;;;;;;;6.22;2.60;;;;;;;21.71;33.50;99738.56;5060343;28;20065;-72
2023/03/13 02:32:30;;;;;;;6.32;2.40;;;;;;;21.71;33.38;99730.44;5062731;28;20032;-72
2023/03/13 02:35:01;;;;;;;5.15;2.13;;;;;;;21.49;33.60;99701.19;5059177;28;20055;-73
2023/03/13 02:37:27;;;;;;;6.53;2.70;;;;;;;21.71;33.65;99741.25;5061291;28;20441;-72
2023/03/13 02:39:53;;;;;;;5.95;2.65;;;;;;;21.71;33.60;99713.38;5044649;28;20064;-73
2023/03/13 02:42:20;;;;;;;5.00;2.30;;;;;;;21.70;33.61;99711.69;5063181;28;20055;-73
2023/03/13 02:44:46;;;;;;;4.05;2.33;;;;;;;21.50;33.51;99681.25;5057069;28;20048;-72
2023/03/13 02:47:16;;;;;;;3.72;1.95;;;;;;;21.54;33.60;99683.28;5044973;28;20089;-73
2023/03/13 02:49:41;;;;;;;4.28;2.10;;;;;;;21.64;33.46;99690.94;5050139;28;20033;-72
2023/03/13 02:52:20;;;;;;;3.55;2.20;;;;;;;21.66;33.43;99683.41;5051196;28;20075;-72
2023/03/13 02:54:49;;;;;;;5.30;2.30;;;;;;;21.66;33.67;99668.03;5055801;28;20029;-73
2023/03/13 02:57:14;;;;;;;5.47;2.58;;;;;;;21.74;33.57;99666.94;5063751;28;20036;-73
2023/03/13 02:59:39;;;;;;;4.18;2.10;;;;;;;21.66;33.44;99676.16;5060744;28;20034;-72
2023/03/13 03:02:05;;;;;;;5.13;2.45;;;;;;;21.62;33.62;99666.81;5055905;28;20037;-72
2023/03/13 03:04:30;;;;;;;4.25;1.90;;;;;;;21.53;33.56;99637.50;5051523;28;20132;-72
2023/03/13 03:06:55;;;;;;;5.40;2.13;;;;;;;21.71;33.58;99654.69;5049800;28;20037;-72
2023/03/13 03:09:21;;;;;;;3.75;2.17;;;;;;;21.70;33.74;99681.94;5047482;28;20033;-72
2023/03/13 03:11:47;;;;;;;3.97;1.95;;;;;;;21.49;33.54;99641.69;5054607;28;20052;-71
2023/03/13 03:14:13;;;;;;;3.50;1.77;;;;;;;21.71;33.42;99654.69;5050110;28;20029;-73
2023/03/13 03:16:38;;;;;;;5.18;2.30;;;;;;;21.61;33.58;99639.97;5064944;28;20238;-73
2023/03/13 03:19:05;;;;;;;5.78;2.13;;;;;;;21.72;33.80;99660.94;5047841;28;20017;-73
2023/03/13 03:21:30;;;;;;;4.72;2.28;;;;;;;21.75;33.61;99662.34;5068714;28;20028;-72
2023/03/13 03:23:55;;;;;;;3.30;2.22;;;;;;;21.73;33.90;99662.56;5046656;28;20029;-71
2023/03/13 03:26:21;;;;;;;2.30;1.45;;;;;;;21.73;33.74;99661.75;5051029;28;20040;-70
2023/03/13 03:28:46;;;;;;;4.68;2.00;;;;;;;21.72;33.90;99660.94;5051186;28;20045;-71
2023/03/13 03:31:13;;;;;;;3.85;1.95;;;;;;;21.71;33.89;99649.28;5051838;28;20045;-73
2023/03/13 03:33:39;;;;;;;4.00;1.75;;;;;;;21.49;33.69;99620.06;5046597;28;20025;-72
2023/03/13 03:36:10;;;;;;;4.45;1.80;;;;;;;21.63;33.63;99643.31;5050827;28;20032;-73
2023/03/13 03:38:38;;;;;;;4.45;1.73;;;;;;;21.66;33.76;99645.56;5051596;28;20024;-72
2023/03/13 03:41:04;;;;;;;2.88;1.70;;;;;;;21.70;33.88;99650.31;5048574;28;20025;-73
2023/03/13 03:43:29;;;;;;;4.10;1.55;;;;;;;21.69;33.86;99648.66;5050422;28;20108;-73
2023/03/13 03:45:54;;;;;;;3.40;1.85;;;;;;;21.70;33.94;99652.19;5051534;28;20480;-72
2023/03/13 03:48:20;;;;;;;3.00;1.60;;;;;;;21.69;33.98;99647.81;5056067;28;20059;-73
2023/03/13 03:50:45;;;;;;;2.33;1.45;;;;;;;21.67;33.33;99644.53;5047020;28;20033;-72
2023/03/13 03:53:10;;;;;;;3.72;1.67;;;;;;;21.70;33.81;99642.19;5051560;28;20053;-72
2023/03/13 03:55:35;;;;;;;3.45;1.70;;;;;;;21.69;33.74;99642.41;5050200;28;20079;-72
2023/03/13 03:58:01;;;;;;;2.70;1.55;;;;;;;21.19;33.87;99570.06;5048338;28;20035;-72
2023/03/13 04:00:26;;;;;;;3.10;1.58;;;;;;;21.69;34.06;99624.31;5046773;28;20029;-73
2023/03/13 04:02:52;;;;;;;3.85;2.35;;;;;;;21.70;33.62;99622.44;5054487;28;20021;-73
2023/03/13 04:05:17;;;;;;;3.33;1.80;;;;;;;21.69;34.04;99616.19;5049024;28;20105;-73
2023/03/13 04:07:42;;;;;;;2.97;1.42;;;;;;;21.68;33.75;99619.94;5047997;28;20032;-72
2023/03/13 04:10:08;;;;;;;3.13;1.40;;;;;;;21.26;33.65;99555.69;5050697;28;20125;-72
2023/03/13 04:12:34;;;;;;;2.95;1.55;;;;;;;21.17;33.75;99537.03;5058046;28;20044;-73
2023/03/13 04:14:59;;;;;;;3.83;1.60;;;;;;;21.45;33.81;99595.31;5059507;28;20024;-72
2023/03/13 04:17:24;;;;;;;3.80;1.70;;;;;;;21.68;34.15;99624.53;5062069;28;20020;-73
2023/03/13 04:19:50;;;;;;;3.25;1.80;;;;;;;21.59;33.86;99615.84;5055829;28;20055;-73
2023/03/13 04:22:15;;;;;;;3.22;1.70;;;;;;;21.67;33.81;99614.78;5053026;28;20167;-72
2023/03/13 04:24:40;;;;;;;2.70;1.50;;;;;;;21.68;33.82;99619.13;5048928;28;20056;-73
2023/03/13 04:27:05;;;;;;;3.65;1.77;;;;;;;21.65;33.81;99619.56;5048386;28;20086;-71
2023/03/13 04:29:32;;;;;;;2.47;1.27;;;;;;;21.68;33.81;99613.72;5058438;28;20041;-72
2023/03/13 04:31:57;;;;;;;2.65;2.13;;;;;;;21.59;34.03;99607.75;5052754;28;20021;-72
2023/03/13 04:34:23;;;;;;;3.67;1.65;;;;;;;21.69;34.23;99599.13;5047756;28;20036;-72
2023/03/13 04:36:48;;;;;;;3.50;1.55;;;;;;;21.69;34.27;99604.53;5053298;28;20100;-72
2023/03/13 04:39:13;;;;;;;3.30;1.55;;;;;;;21.68;34.15;99603.72;5057407;28;20112;-73
2023/03/13 04:41:38;;;;;;;3.35;1.40;;;;;;;21.54;34.06;99587.81;5051097;28;20046;-73
2023/03/13 04:44:04;;;;;;;3.58;1.58;;;;;;;21.59;34.19;99582.56;5046258;28;20037;-73
2023/03/13 04:46:29;;;;;;;2.78;1.17;;;;;;;21.68;34.00;99601.00;5059032;28;20034;-72
2023/03/13 04:48:54;;;;;;;4.05;1.60;;;;;;;21.69;33.94;99585.59;5058908;28;20068;-72
2023/03/13 04:51:20;;;;;;;1.88;1.05;;;;;;;21.69;34.24;99581.03;5053161;28;20044;-72
2023/03/13 04:53:45;;;;;;;2.70;1.13;;;;;;;21.69;34.39;99578.31;5059852;28;20033;-73
2023/03/13 04:56:18;;;;;;;1.95;1.25;;;;;;;21.44;33.92;99539.59;5060034;28;20037;-74
2023/03/13 04:58:43;;;;;;;2.22;1.30;;;;;;;21.67;34.34;99566.06;5043750;28;20040;-71
2023/03/13 05:01:09;;;;;;;2.45;1.15;;;;;;;21.67;34.00;99561.50;5050896;28;20025;-71
2023/03/13 05:03:34;;;;;;;2.53;1.58;;;;;;;21.10;34.23;99476.78;5051193;28;20026;-73
2023/03/13 05:05:59;;;;;;;1.95;1.30;;;;;;;21.66;34.02;99561.69;5057108;28;20069;-72
2023/03/13 05:08:24;;;;;;;2.95;1.13;;;;;;;21.67;34.41;99561.50;5054097;28;20033;-73
2023/03/13 05:10:50;;;;;;;3.88;1.45;;;;;;;21.64;34.27;99534.88;5049599;28;20037;-73
2023/03/13 05:13:15;;;;;;;2.30;1.10;;;;;;;21.71;34.11;99551.88;5054000;28;20040;-71
2023/03/13 05:15:40;;;;;;;3.35;1.35;;;;;;;21.74;34.22;99542.50;5058922;28;20094;-70
2023/03/13 05:18:05;;;;;;;1.95;1.20;;;;;;;21.69;34.15;99520.69;5061377;28;20060;-71
2023/03/13 05:20:31;;;;;;;2.28;1.20;;;;;;;21.76;34.37;99550.41;5058562;28;20070;-71
2023/03/13 05:22:56;;;;;;;2.60;1.15;;;;;;;21.75;34.25;99538.75;5060706;28;20029;-70
2023/03/13 05:25:21;;;;;;;2.63;1.15;;;;;;;21.76;34.14;99534.16;5067877;28;20042;-72
2023/03/13 05:27:46;;;;;;;2.40;1.15;;;;;;;21.76;34.21;99528.75;5059199;28;20078;-70
2023/03/13 05:30:12;;;;;;;2.78;1.15;;;;;;;21.70;34.60;99515.03;5059867;28;20084;-71
2023/03/13 05:32:37;;;;;;;1.80;1.15;;;;;;;21.75;34.47;99538.75;5060731;28;20021;-72
2023/03/13 05:35:03;;;;;;;2.25;0.90;;;;;;;21.84;34.47;99528.50;5059037;28;20025;-70
2023/03/13 05:37:28;;;;;;;1.45;1.15;;;;;;;21.89;34.51;99534.88;5048397;28;20033;-71
2023/03/13 05:39:53;;;;;;;2.78;1.40;;;;;;;21.71;34.76;99505.09;5059007;28;20037;-70
2023/03/13 05:42:18;;;;;;;1.55;0.90;;;;;;;21.90;34.84;99531.13;5058383;28;20029;-71
2023/03/13 05:44:44;;;;;;;3.20;0.95;;;;;;;21.93;34.55;99521.75;5059714;28;20390;-70
2023/03/13 05:47:09;;;;;;;2.97;1.00;;;;;;;21.77;34.71;99503.34;5058670;28;20051;-70
2023/03/13 05:49:34;;;;;;;1.95;0.98;;;;;;;21.93;34.64;99521.75;5061337;28;20033;-70
2023/03/13 05:51:59;;;;;;;2.63;1.05;;;;;;;21.80;34.81;99501.03;5058712;28;20031;-70
2023/03/13 05:54:25;;;;;;;2.20;0.88;;;;;;;21.99;34.96;99533.53;5059972;28;20022;-71
2023/03/13 05:56:50;;;;;;;2.05;1.50;;;;;;;22.02;35.06;99533.94;5060627;28;20059;-71
2023/03/13 05:59:16;;;;;;;2.72;0.93;;;;;;;22.05;34.77;99533.50;5055932;28;20035;-71
2023/03/13 06:01:41;;;;;;;2.45;1.35;;;;;;;22.05;35.08;99532.66;5060988;28;20020;-73
2023/03/13 06:04:07;;;;;;;5.80;1.23;;;;;;;22.08;34.92;99538.44;5057830;28;20025;-73
2023/03/13 06:06:32;;;;;;;4.53;1.02;;;;;;;21.86;35.05;99499.31;5059976;28;20036;-74
2023/03/13 06:08:57;;;;;;;8.50;1.55;;;;;;;21.88;35.10;99495.34;5057281;28;20036;-73
2023/03/13 06:11:22;;;;;;;8.30;1.25;;;;;;;21.94;34.97;99505.28;5060176;28;20079;-70
2023/03/13 06:13:50;;;;;;;2.22;1.00;;;;;;;22.06;35.20;99524.31;5061130;28;20076;-71
2023/03/13 06:16:15;;;;;;;2.25;1.15;;;;;;;22.09;35.11;99534.72;5060501;28;20025;-72
2023/03/13 06:18:40;;;;;;;2.05;1.10;;;;;;;21.91;35.46;99494.06;5059300;28;20029;-73
2023/03/13 06:21:06;;;;;;;1.83;0.90;;;;;;;21.98;35.11;99500.25;5057672;28;20025;-71
2023/03/13 06:23:32;;;;;;;1.48;1.00;;;;;;;22.05;35.06;99516.44;5060260;28;20088;-71
2023/03/13 06:25:57;;;;;;;2.15;0.85;;;;;;;22.01;35.39;99504.41;5058940;28;20030;-71
2023/03/13 06:28:22;;;;;;;2.13;1.02;;;;;;;22.20;35.17;99527.75;5057455;28;20048;-72
2023/03/13 06:30:47;;;;;;;1.63;0.85;;;;;;;22.19;35.38;99517.97;5058465;28;20027;-71
2023/03/13 06:33:13;;;;;;;2.63;1.02;;;;;;;21.87;34.89;99450.38;5061240;28;20064;-72
2023/03/13 06:35:42;;;;;;;3.53;1.00;;;;;;;22.23;34.90;99504.81;5057774;28;20021;-72
2023/03/13 06:38:08;;;;;;;3.25;1.10;;;;;;;22.10;35.26;99484.09;5056260;28;20033;-76
2023/03/13 06:40:33;;;;;;;1.05;0.70;;;;;;;22.06;35.12;99469.38;5063517;28;20036;-73
2023/03/13 06:42:59;;;;;;;4.20;1.00;;;;;;;21.88;35.06;99435.81;5060098;28;20037;-75
2023/03/13 06:45:24;;;;;;;2.90;0.90;;;;;;;22.25;34.93;99495.41;5058806;28;20036;-74
2023/03/13 06:47:51;;;;;;;1.10;0.70;;;;;;;22.28;35.18;99491.44;5054876;28;20028;-73
2023/03/13 06:50:16;;;;;;;1.48;0.80;;;;;;;22.20;35.24;99482.53;5062070;28;20048;-75
2023/03/13 06:52:42;;;;;;;1.27;0.80;;;;;;;22.24;35.04;99492.94;5058298;28;20028;-74
2023/03/13 06:55:08;;;;;;;1.83;0.90;;;;;;;21.88;35.47;99437.69;5056183;28;20029;-74
2023/03/13 06:57:33;;;;;;;3.72;0.98;;;;;;;22.05;35.27;99460.41;5059179;28;20017;-72
2023/03/13 06:59:58;;;;;;;1.95;1.00;;;;;;;21.93;35.36;99446.78;5061512;28;20032;-74
2023/03/13 07:02:23;;;;;;;4.22;1.17;;;;;;;22.15;35.47;99487.81;5055035;28;20021;-74
2023/03/13 07:04:49;;;;;;;1.88;0.73;;;;;;;22.22;35.47;99490.47;5058093;28;20045;-73
2023/03/13 07:07:14;;;;;;;2.72;1.30;;;;;;;22.23;35.24;99488.59;5058888;28;20112;-72
2023/03/13 07:09:39;;;;;;;2.80;1.10;;;;;;;22.02;35.46;99441.09;5058506;28;20097;-72
2023/03/13 07:12:05;;;;;;;1.73;0.70;;;;;;;22.15;35.29;99462.63;5059097;28;20076;-74
2023/03/13 07:14:30;;;;;;;2.28;0.90;;;;;;;22.11;35.27;99459.50;5056995;28;20022;-73
2023/03/13 07:16:57;;;;;;;2.47;1.00;;;;;;;22.04;35.44;99450.63;5057864;28;20030;-72
2023/03/13 07:19:23;;;;;;;3.38;1.00;;;;;;;22.23;35.51;99492.13;5060403;28;20055;-72
2023/03/13 07:21:48;;;;;;;1.77;0.98;;;;;;;22.08;35.25;99451.00;5056318;28;20033;-72
2023/03/13 07:24:14;;;;;;;3.33;1.25;;;;;;;22.00;35.33;99448.59;5054625;28;20025;-73
2023/03/13 07:26:39;;;;;;;2.80;0.93;;;;;;;22.16;35.44;99477.81;5056536;28;20109;-72
2023/03/13 07:29:04;;;;;;;2.78;0.80;;;;;;;22.16;35.32;99470.50;5060281;28;20056;-72
2023/03/13 07:31:32;;;;;;;1.85;1.10;;;;;;;22.24;35.18;99476.69;5059516;28;20029;-72
2023/03/13 07:33:58;;;;;;;1.70;0.80;;;;;;;22.21;35.19;99484.19;5055379;28;20143;-72
2023/03/13 07:36:23;;;;;;;3.97;1.40;;;;;;;22.20;35.28;99479.00;5063002;28;20037;-72
2023/03/13 07:38:49;;;;;;;4.45;1.05;;;;;;;21.96;35.32;99440.09;5044660;28;20036;-72
2023/03/13 07:41:15;;;;;;;1.90;0.80;;;;;;;22.14;35.39;99488.06;5047442;28;20060;-73
2023/03/13 07:43:40;;;;;;;1.88;0.80;;;;;;;22.08;35.81;99465.38;5049787;28;20055;-72
2023/03/13 07:46:07;;;;;;;4.35;0.90;;;;;;;22.15;35.76;99476.16;5058877;28;20068;-72
2023/03/13 07:48:37;;;;;;;1.95;0.90;;;;;;;21.88;35.58;99435.00;5059845;28;20041;-73
2023/03/13 07:51:04;;;;;;;4.30;1.40;;;;;;;22.08;35.45;99472.66;5048776;28;20042;-72
2023/03/13 07:53:30;;;;;;;3.22;1.13;;;;;;;22.19;35.36;99486.31;5036869;28;20037;-73
2023/03/13 07:55:59;;;;;;;2.22;0.80;;;;;;;22.20;35.38;99481.72;5061585;28;20021;-73
2023/03/13 07:58:27;;;;;;;1.90;0.85;;;;;;;22.18;35.71;99498.19;5047402;28;20040;-73
2023/03/13 08:00:53;;;;;;;3.63;0.80;;;;;;;22.17;35.38;99498.41;5053525;28;20089;-72
2023/03/13 08:03:19;;;;;;;1.98;1.00;;;;;;;21.80;35.54;99433.41;5050550;28;20523;-71
2023/03/13 08:05:44;;;;;;;2.88;1.10;;;;;;;22.08;35.80;99484.31;5050088;28;20074;-71
2023/03/13 08:08:09;;;;;;;3.83;1.00;;;;;;;22.09;36.23;99490.53;5064775;28;20475;-72
2023/03/13 08:10:35;;;;;;;4.82;0.90;;;;;;;21.93;35.90;99473.03;5064160;28;20029;-71
2023/03/13 08:13:00;;;;;;;3.92;1.48;;;;;;;21.88;36.04;99460.16;5057102;28;20029;-73
2023/03/13 08:15:27;;;;;;;2.05;0.90;;;;;;;21.36;35.89;99378.47;5057884;28;20701;-73
2023/03/13 08:17:53;;;;;;;2.75;1.05;;;;;;;22.08;36.17;99486.19;5059105;28;20167;-74
2023/03/13 08:20:18;;;;;;;2.00;0.93;;;;;;;22.00;36.06;99481.88;5058633;28;20037;-72
2023/03/13 08:22:49;;;;;;;2.35;0.95;;;;;;;21.87;36.25;99460.38;5061724;28;20036;-72
2023/03/13 08:25:15;;;;;;;2.55;1.00;;;;;;;22.12;36.40;99493.66;5060490;28;20032;-72
2023/03/13 08:27:40;;;;;;;1.77;0.82;;;;;;;22.11;35.99;99491.16;5056947;28;20478;-72
2023/03/13 08:30:06;;;;;;;2.67;0.90;;;;;;;22.05;36.32;99484.78;5061191;28;20028;-73
2023/03/13 08:32:32;;;;;;;1.98;0.90;;;;;;;22.03;36.38;99475.22;5061632;28;20033;-72
2023/03/13 08:34:57;;;;;;;1.75;0.70;;;;;;;21.87;36.33;99444.97;5061669;28;20017;-73
2023/03/13 08:37:23;;;;;;;2.90;1.10;;;;;;;22.12;36.65;99482.84;5070021;28;20767;-72
2023/03/13 08:39:48;;;;;;;4.22;1.13;;;;;;;22.10;36.64;99463.28;5070554;28;20035;-72
2023/03/13 08:42:14;;;;;;;1.92;1.00;;;;;;;22.09;36.52;99469.75;5056800;28;20031;-72
2023/03/13 08:44:39;;;;;;;1.50;0.70;;;;;;;22.09;36.31;99468.88;5055515;28;20048;-72
2023/03/13 08:47:05;;;;;;;2.22;0.95;;;;;;;22.09;36.73;99466.19;5060036;28;20112;-72
2023/03/13 08:49:31;;;;;;;4.10;1.23;;;;;;;22.06;36.58;99464.78;5056096;28;20033;-71
2023/03/13 08:51:56;;;;;;;1.55;0.93;;;;;;;21.80;36.67;99429.88;5061591;28;20037;-72
2023/03/13 08:54:21;;;;;;;2.65;1.10;;;;;;;22.04;36.53;99466.03;5058019;28;20084;-72
2023/03/13 08:56:46;;;;;;;1.95;0.90;;;;;;;22.06;36.43;99469.38;5059625;28;20414;-72
2023/03/13 08:59:14;;;;;;;2.42;0.85;;;;;;;22.08;36.40;99461.84;5062617;28;20021;-72
2023/03/13 09:01:39;;;;;;;2.35;0.93;;;;;;;22.09;36.27;99453.50;5051387;28;20087;-72
2023/03/13 09:04:05;;;;;;;1.33;0.70;;;;;;;21.95;36.27;99433.03;5057036;28;20041;-72
2023/03/13 09:06:34;;;;;;;1.50;0.82;;;;;;;22.12;36.62;99468.44;5056388;28;20030;-72
2023/03/13 09:09:00;;;;;;;1.25;0.75;;;;;;;22.06;36.53;99453.13;5052290;28;20029;-72
2023/03/13 09:11:26;;;;;;;2.05;0.90;;;;;;;22.16;36.18;99448.84;5064757;28;20083;-73
2023/03/13 09:13:51;;;;;;;1.83;0.90;;;;;;;21.93;36.55;99413.50;5071474;28;20167;-72
2023/03/13 09:16:22;;;;;;;2.08;0.85;;;;;;;22.14;36.13;99434.72;5055377;28;20104;-72
2023/03/13 09:18:48;;;;;;;1.27;0.90;;;;;;;22.18;36.41;99438.66;5062096;28;20041;-72
2023/03/13 09:21:16;;;;;;;2.15;1.10;;;;;;;22.16;36.53;99429.09;5051698;28;20029;-72
2023/03/13 09:23:42;;;;;;;1.50;0.90;;;;;;;22.08;36.73;99421.22;5055719;28;20061;-72
2023/03/13 09:26:08;;;;;;;1.83;1.00;;;;;;;21.83;36.77;99383.41;5062404;28;20056;-72
2023/03/13 09:28:34;;;;;;;2.63;0.95;;;;;;;21.94;36.43;99393.50;5050807;28;20021;-72
2023/03/13 09:31:11;;;;;;;1.35;0.70;;;;;;;22.13;36.52;99433.09;5049382;28;20108;-72
2023/03/13 09:33:36;;;;;;;2.90;1.17;;;;;;;21.91;36.56;99397.47;5054204;28;20037;-72
2023/03/13 09:36:02;;;;;;;1.95;1.02;;;;;;;22.10;36.49;99419.16;5051258;28;20060;-71
2023/03/13 09:38:28;;;;;;;2.80;1.00;;;;;;;22.10;37.00;99422.66;5052062;28;20029;-73
2023/03/13 09:40:53;;;;;;;2.17;0.80;;;;;;;22.10;36.54;99411.84;5048451;28;20109;-72
2023/03/13 09:43:50;;;;;;;2.35;0.95;;;;;;;22.09;36.66;99406.63;5070172;28;20022;-72
2023/03/13 09:46:22;;;;;;;3.42;0.93;;;;;;;21.85;36.94;99384.84;5057353;28;20032;-72
2023/03/13 09:48:50;;;;;;;2.70;0.73;;;;;;;22.02;36.58;99389.66;5053864;28;20030;-72
2023/03/13 09:51:24;;;;;;;2.33;1.33;;;;;;;21.89;36.93;99385.22;5067509;28;20030;-72
2023/03/13 09:53:59;;;;;;;2.70;1.10;;;;;;;22.09;36.92;99401.22;5065563;28;20549;-72
2023/03/13 09:56:38;;;;;;;1.35;0.77;;;;;;;22.07;36.61;99398.75;5063506;28;20022;-73
2023/03/13 09:59:09;;;;;;;2.75;1.00;;;;;;;22.10;36.72;99411.03;5055227;28;20028;-72
2023/03/13 10:01:36;;;;;;;2.17;0.98;;;;;;;22.15;36.99;99394.94;5051902;28;20485;-73
2023/03/13 10:04:11;;;;;;;2.25;0.73;;;;;;;22.17;36.81;99393.69;5063034;28;20018;-72
2023/03/13 10:06:42;;;;;;;1.52;0.70;;;;;;;22.12;36.50;99382.69;5054398;28;20041;-72
2023/03/13 10:09:19;;;;;;;2.58;0.88;;;;;;;22.06;36.66;99345.69;5054900;28;20053;-71
2023/03/13 10:12:06;;;;;;;2.05;0.82;;;;;;;21.84;36.38;99304.75;5051246;28;20492;-72
2023/03/13 10:14:51;;;;;;;2.10;0.80;;;;;;;22.21;36.62;99365.06;5054033;28;20098;-71
2023/03/13 10:17:31;;;;;;;2.92;1.08;;;;;;;22.20;36.92;99359.91;5065924;28;20021;-72
2023/03/13 10:20:00;;;;;;;2.47;0.82;;;;;;;22.23;36.84;99372.16;5063381;28;20024;-72
2023/03/13 10:22:28;;;;;;;1.45;0.70;;;;;;;22.07;36.56;99335.69;5065976;28;20029;-72
2023/03/13 10:24:58;;;;;;;1.45;0.68;;;;;;;22.25;36.90;99346.50;5054124;28;20021;-72
2023/03/13 10:27:23;;;;;;;1.65;0.68;;;;;;;22.24;36.55;99344.84;5066729;28;20055;-72
2023/03/13 10:29:48;;;;;;;2.25;0.90;;;;;;;22.25;36.86;99353.81;5059964;28;20131;-71
2023/03/13 10:32:15;;;;;;;1.67;0.90;;;;;;;22.21;36.65;99331.78;5058291;28;20033;-71
2023/03/13 10:35:00;;;;;;;1.80;0.82;;;;;;;22.17;36.94;99346.81;5053996;28;20033;-71
2023/03/13 10:37:30;;;;;;;2.40;1.00;;;;;;;21.96;37.07;99302.06;5049711;28;20025;-72
2023/03/13 10:40:11;;;;;;;3.03;0.88;;;;;;;22.13;37.24;99332.09;5048250;28;20018;-71
2023/03/13 10:42:42;;;;;;;2.17;1.02;;;;;;;21.90;37.28;99305.69;5052920;28;20060;-71
2023/03/13 10:45:14;;;;;;;3.20;1.40;;;;;;;22.09;37.34;99334.41;5061442;28;20021;-71
2023/03/13 10:47:39;;;;;;;1.58;0.80;;;;;;;21.73;37.06;99305.50;5067757;28;20035;-71
2023/03/13 10:50:08;;;;;;;1.95;0.90;;;;;;;21.80;37.17;99272.97;5061001;28;20029;-72
2023/03/13 10:52:46;;;;;;;2.35;0.75;;;;;;;22.07;37.27;99320.25;5053329;28;20025;-71
2023/03/13 10:55:23;;;;;;;2.95;1.00;;;;;;;22.02;37.61;99309.31;5053177;28;20025;-74
2023/03/13 10:57:51;;;;;;;2.88;1.00;;;;;;;22.06;37.48;99326.75;5062543;28;20434;-72
2023/03/13 11:00:32;;;;;;;2.65;0.80;;;;;;;22.06;37.65;99329.44;5060166;28;20227;-71
2023/03/13 11:02:57;;;;;;;4.25;1.27;;;;;;;21.83;37.58;99296.84;5055508;28;20047;-71
2023/03/13 11:05:23;;;;;;;2.67;0.93;;;;;;;22.07;37.72;99312.13;5042376;28;20041;-71
2023/03/13 11:07:49;;;;;;;1.35;0.90;;;;;;;21.88;37.63;99305.94;5054563;28;20032;-70
2023/03/13 11:10:25;;;;;;;1.67;0.80;;;;;;;22.11;37.75;99355.81;5055114;28;20033;-72
2023/03/13 11:12:55;;;;;;;2.80;1.00;;;;;;;21.61;37.77;99239.69;5049421;28;20024;-71
2023/03/13 11:15:22;;;;;;;2.35;0.93;;;;;;;22.12;37.70;99323.13;5048440;28;20056;-75
2023/03/13 11:17:56;;;;;;;3.08;1.48;;;;;;;22.14;37.98;99329.16;5066098;28;20090;-74
2023/03/13 11:20:26;;;;;;;2.08;0.75;;;;;;;22.08;38.08;99324.63;5052620;28;20089;-72
2023/03/13 11:23:38;;;;;;;1.55;0.60;;;;;;;21.71;37.94;99239.97;5045343;28;20021;-73
2023/03/13 11:26:25;;;;;;;1.95;1.02;;;;;;;22.21;37.95;99310.09;5025004;28;20064;-79
2023/03/13 11:29:12;;;;;;;1.95;0.90;;;;;;;22.22;38.13;99322.63;5019626;28;20029;-72
2023/03/13 11:31:44;;;;;;;2.25;0.90;;;;;;;22.21;38.06;99297.41;5039704;28;20044;-72
2023/03/13 11:34:26;;;;;;;2.60;0.90;;;;;;;22.20;38.03;99303.88;5025119;28;20064;-72